LIRN/NAP METAR and TAF weather

Enter ICAO airport designator
Station Type Date Time Source
LIRN METAR 2022/08/16 18:50 UTC NOAA

LIRN 161850Z 24003KT 9999 FEW040 27/25 Q1012 NOSIG


Station Type Date Time Source
LIRN Decoded METAR 2022/08/16 18:50 UTC NOAA

Napoli / Capodichino, Italy (LIRN) 40-51N 014-18E 72M
Aug 16, 2022 - 02:50 PM EDT / 2022.08.16 1850 UTC
Wind: from the WSW (240 degrees) at 3 MPH (3 KT):0
Visibility: greater than 7 mile(s):0
Sky conditions: mostly clear
Temperature: 80 F (27 C)
Dew Point: 77 F (25 C)
Relative Humidity: 88%
Pressure (altimeter): 29.88 in. Hg (1012 hPa)
ob: LIRN 161850Z 24003KT 9999 FEW040 27/25 Q1012 NOSIG
cycle: 19

Station Type Date Time Source
LIRN TAF 2022/08/16 18:21 UTC NOAA

TAF LIRN 161700Z 1618/1718 22010KT CAVOK
BECMG 1618/1620 VRB05KT
BECMG 1708/1710 20012KT

Example: see airport list